Time;durP1;ratioP1;P1;durP2;ratioP2;P2;SDS_P1;SDS_P2;PMS_P1;PMS_P2;Temp;Humidity;BMP_temperature;BMP_pressure;BME280_temperature;BME280_humidity;BME280_pressure;Samples;Min_cycle;Max_cycle;Signal;HPM_P1;HPM_P2
2022/01/05 00:14:54;;;;;;;13.27;6.97;;;;;;;2.13;100.00;99773.94;31195130;28;20054;-74
2022/01/05 00:29:58;;;;;;;12.43;6.77;;;;;;;2.33;100.00;99742.34;31204579;28;20149;-74
2022/01/05 00:44:59;;;;;;;11.30;6.03;;;;;;;2.27;100.00;99741.16;31166727;28;20079;-74
2022/01/05 01:00:04;;;;;;;14.50;7.00;;;;;;;2.27;100.00;99723.19;31209577;28;20493;-74
2022/01/05 01:15:08;;;;;;;14.43;5.93;;;;;;;2.19;100.00;99718.13;31220188;28;20400;-73
2022/01/05 01:30:11;;;;;;;11.60;6.10;;;;;;;2.12;100.00;99705.47;31198891;28;21193;-74
2022/01/05 01:45:13;;;;;;;15.50;6.70;;;;;;;2.10;100.00;99678.28;31233856;28;20045;-75
2022/01/05 02:00:15;;;;;;;9.53;4.73;;;;;;;2.14;100.00;99668.34;31179939;28;20649;-74
2022/01/05 02:15:17;;;;;;;15.90;6.73;;;;;;;2.23;100.00;99631.31;31186579;28;20056;-75
2022/01/05 02:30:22;;;;;;;12.13;6.17;;;;;;;2.27;100.00;99612.59;31164422;28;20060;-74
2022/01/05 02:45:25;;;;;;;17.47;6.97;;;;;;;2.41;100.00;99585.88;31207956;28;20049;-73
2022/01/05 03:00:27;;;;;;;12.00;4.73;;;;;;;2.54;100.00;99540.78;31212133;28;20164;-74
2022/01/05 03:15:29;;;;;;;9.47;3.90;;;;;;;2.59;100.00;99521.66;31200669;28;20053;-74
2022/01/05 03:30:33;;;;;;;8.43;4.63;;;;;;;2.62;100.00;99488.72;31172666;28;20057;-73
2022/01/05 03:45:37;;;;;;;9.07;4.93;;;;;;;2.69;100.00;99488.75;31189915;28;20053;-73
2022/01/05 04:00:42;;;;;;;11.67;4.53;;;;;;;2.76;100.00;99520.94;31200422;28;20049;-73
2022/01/05 04:15:44;;;;;;;9.20;3.17;;;;;;;2.85;100.00;99507.16;31195844;28;20104;-73
2022/01/05 04:30:46;;;;;;;9.07;3.47;;;;;;;2.86;100.00;99482.66;31223925;28;20049;-74
2022/01/05 04:45:49;;;;;;;9.37;4.07;;;;;;;2.78;100.00;99491.06;31235374;28;20046;-75
2022/01/05 05:00:51;;;;;;;6.90;3.20;;;;;;;2.72;100.00;99461.19;31221510;28;20054;-75
2022/01/05 05:15:53;;;;;;;7.60;2.97;;;;;;;2.75;100.00;99433.63;31219067;28;20056;-75
2022/01/05 05:30:55;;;;;;;7.10;2.97;;;;;;;2.86;100.00;99429.03;31188509;28;20475;-73
2022/01/05 05:45:57;;;;;;;2.70;1.83;;;;;;;2.90;100.00;99388.81;31210994;28;20046;-75
2022/01/05 06:00:59;;;;;;;4.63;2.70;;;;;;;2.98;100.00;99417.19;31219309;28;20072;-75
2022/01/05 06:16:01;;;;;;;4.90;2.53;;;;;;;3.08;100.00;99429.81;31178439;28;20149;-72
2022/01/05 06:31:03;;;;;;;4.83;2.30;;;;;;;3.19;100.00;99366.22;31195579;28;20050;-75
2022/01/05 06:46:05;;;;;;;5.00;2.20;;;;;;;3.31;100.00;99389.16;31216248;28;20049;-74
2022/01/05 07:01:07;;;;;;;6.23;2.50;;;;;;;3.46;100.00;99393.38;31212768;28;20064;-74
2022/01/05 07:16:10;;;;;;;5.40;2.37;;;;;;;3.69;100.00;99361.47;31185850;28;20096;-74
2022/01/05 07:31:12;;;;;;;2.47;1.73;;;;;;;3.89;100.00;99398.59;31175031;28;20049;-74
2022/01/05 07:46:13;;;;;;;1.67;1.27;;;;;;;4.02;100.00;99365.53;31159993;28;20056;-75
2022/01/05 08:01:18;;;;;;;5.27;1.93;;;;;;;4.16;100.00;99332.47;31195902;28;20473;-75
2022/01/05 08:16:20;;;;;;;4.27;2.13;;;;;;;4.27;100.00;99373.44;31212595;28;20111;-73
2022/01/05 08:31:22;;;;;;;14.70;7.10;;;;;;;4.52;100.00;99342.97;31171152;28;20049;-74
2022/01/05 08:46:24;;;;;;;12.10;7.03;;;;;;;4.67;100.00;99325.59;31180499;28;20062;-74
2022/01/05 09:01:26;;;;;;;6.60;3.77;;;;;;;4.83;100.00;99333.88;31166511;28;20057;-73
2022/01/05 09:16:29;;;;;;;14.83;7.43;;;;;;;5.00;100.00;99351.03;31191426;28;20514;-74
2022/01/05 09:31:34;;;;;;;11.93;6.13;;;;;;;5.05;100.00;99329.84;31176782;28;20652;-73
2022/01/05 09:47:04;;;;;;;23.70;10.30;;;;;;;5.12;100.00;99335.16;31245086;28;20053;-74
2022/01/05 10:02:07;;;;;;;14.93;8.70;;;;;;;5.28;100.00;99301.53;31192864;28;20088;-75
2022/01/05 10:17:12;;;;;;;20.20;11.23;;;;;;;5.48;100.00;99291.69;31224566;28;20157;-73
2022/01/05 10:32:14;;;;;;;20.17;9.87;;;;;;;5.75;100.00;99270.97;31193077;28;20057;-73
2022/01/05 10:47:16;;;;;;;20.07;11.10;;;;;;;5.86;100.00;99257.38;31235309;28;20126;-73
2022/01/05 11:02:28;;;;;;;30.60;14.03;;;;;;;5.94;100.00;99226.47;31217375;28;20045;-73
2022/01/05 11:17:30;;;;;;;23.93;11.17;;;;;;;6.20;100.00;99202.59;31200258;28;20053;-75
2022/01/05 11:32:34;;;;;;;25.33;11.23;;;;;;;6.65;100.00;99238.03;31231079;28;20045;-74
2022/01/05 11:47:39;;;;;;;30.80;12.63;;;;;;;6.97;100.00;99230.13;31211683;28;20038;-74
2022/01/05 12:02:41;;;;;;;24.43;12.37;;;;;;;6.90;100.00;99240.28;31208914;28;20061;-74
2022/01/05 12:18:00;;;;;;;25.27;11.87;;;;;;;7.90;100.00;99222.81;31181137;28;20445;-74
2022/01/05 12:33:14;;;;;;;25.40;10.87;;;;;;;7.15;100.00;99217.03;31209666;28;20125;-73
2022/01/05 12:48:31;;;;;;;23.33;11.33;;;;;;;6.77;100.00;99202.38;31228184;28;20057;-72
2022/01/05 13:03:33;;;;;;;42.10;16.43;;;;;;;6.58;100.00;99230.09;31203657;28;20399;-73
2022/01/05 13:18:35;;;;;;;43.77;18.17;;;;;;;6.52;100.00;99231.72;31218375;28;20502;-75
2022/01/05 13:33:37;;;;;;;45.17;18.07;;;;;;;6.51;100.00;99220.19;31215889;28;20045;-74
2022/01/05 13:48:40;;;;;;;47.07;21.20;;;;;;;6.50;100.00;99219.41;31214754;28;20112;-73
2022/01/05 14:03:53;;;;;;;38.70;17.77;;;;;;;6.46;100.00;99239.50;31205895;28;20056;-74
2022/01/05 14:18:59;;;;;;;40.83;17.97;;;;;;;6.52;100.00;99256.75;31205235;28;20054;-74
2022/01/05 14:34:02;;;;;;;39.67;19.03;;;;;;;6.57;100.00;99277.09;31191329;28;20061;-74
2022/01/05 14:49:06;;;;;;;56.30;25.03;;;;;;;6.59;100.00;99296.34;31200287;28;20049;-74
2022/01/05 15:04:08;;;;;;;51.00;21.43;;;;;;;6.60;100.00;99300.56;31185667;28;20056;-75
2022/01/05 15:19:10;;;;;;;55.20;22.87;;;;;;;6.62;100.00;99314.38;31221342;28;20053;-75
2022/01/05 15:34:13;;;;;;;40.77;16.60;;;;;;;6.73;100.00;99302.25;31194307;28;20772;-74
2022/01/05 15:49:15;;;;;;;42.83;15.93;;;;;;;6.64;100.00;99312.78;31183740;28;20054;-75
2022/01/05 16:04:17;;;;;;;34.30;13.47;;;;;;;6.65;100.00;99302.75;31211491;28;20049;-76
2022/01/05 16:19:19;;;;;;;33.07;15.40;;;;;;;6.72;100.00;99278.38;31179101;28;20050;-72
2022/01/05 16:34:21;;;;;;;37.10;14.97;;;;;;;6.72;100.00;99297.25;31190662;28;20045;-79
2022/01/05 16:49:23;;;;;;;45.30;20.33;;;;;;;6.64;100.00;99303.94;31228220;28;20523;-71
2022/01/05 17:04:26;;;;;;;44.37;19.23;;;;;;;6.60;100.00;99319.44;31190881;28;20049;-72
2022/01/05 17:19:29;;;;;;;45.00;18.73;;;;;;;6.50;100.00;99284.13;31204872;28;20056;-83
2022/01/05 17:35:08;;;;;;;40.63;14.60;;;;;;;6.45;100.00;99281.91;31200902;28;20059;-84
2022/01/05 17:50:10;;;;;;;33.17;11.77;;;;;;;6.31;100.00;99292.16;31213720;28;20050;-75
2022/01/05 18:05:32;;;;;;;54.33;12.60;;;;;;;6.01;100.00;99263.31;31216341;28;20676;-73
2022/01/05 18:20:35;;;;;;;182.67;18.87;;;;;;;5.66;100.00;99259.94;31188511;28;20108;-79
2022/01/05 18:35:37;;;;;;;30.20;11.03;;;;;;;5.47;100.00;99252.47;31238788;28;20053;-74
2022/01/05 18:50:39;;;;;;;66.93;11.97;;;;;;;5.39;100.00;99251.81;31170422;28;20050;-75
2022/01/05 19:05:40;;;;;;;17.70;8.83;;;;;;;5.30;100.00;99262.31;31177465;28;20061;-73
2022/01/05 19:20:42;;;;;;;44.00;17.97;;;;;;;5.22;100.00;99252.00;31174930;28;20057;-75
2022/01/05 19:35:46;;;;;;;32.17;15.97;;;;;;;5.03;100.00;99262.22;31204136;28;20049;-73
2022/01/05 19:51:00;;;;;;;46.50;18.87;;;;;;;4.82;100.00;99265.13;31169849;28;20050;-73
2022/01/05 20:06:09;;;;;;;20.20;10.23;;;;;;;4.76;100.00;99253.28;31174515;28;20058;-74
2022/01/05 20:21:11;;;;;;;35.40;14.47;;;;;;;4.65;100.00;99274.13;31190759;28;20045;-73
2022/01/05 20:36:13;;;;;;;35.67;15.73;;;;;;;4.59;100.00;99271.09;31165628;28;20057;-73
2022/01/05 20:51:15;;;;;;;24.30;10.87;;;;;;;4.56;100.00;99252.31;31174870;28;20049;-74
2022/01/05 21:06:18;;;;;;;41.67;15.27;;;;;;;4.62;100.00;99264.19;31174340;28;20546;-71
2022/01/05 21:21:22;;;;;;;38.43;16.90;;;;;;;4.72;100.00;99274.81;31205022;28;20048;-73
2022/01/05 21:36:24;;;;;;;47.50;15.73;;;;;;;4.77;100.00;99287.06;31206339;28;20056;-76
2022/01/05 21:51:26;;;;;;;38.13;13.37;;;;;;;4.78;100.00;99277.84;31204436;28;20118;-76
2022/01/05 22:06:28;;;;;;;37.87;8.37;;;;;;;4.88;100.00;99277.00;31217693;28;20160;-77
2022/01/05 22:21:30;;;;;;;61.97;17.73;;;;;;;4.86;100.00;99252.41;31162146;28;20572;-74
2022/01/05 22:36:32;;;;;;;95.77;23.87;;;;;;;4.85;100.00;99285.84;31190490;28;20056;-75
2022/01/05 22:51:34;;;;;;;69.13;13.97;;;;;;;4.80;100.00;99280.91;31218545;28;20077;-76
2022/01/05 23:06:36;;;;;;;50.83;15.93;;;;;;;4.88;100.00;99298.50;31206926;28;20521;-75
2022/01/05 23:21:39;;;;;;;55.93;16.97;;;;;;;5.07;100.00;99284.47;31219610;28;20046;-76
2022/01/05 23:36:41;;;;;;;38.50;13.57;;;;;;;5.20;100.00;99281.28;31163695;28;20414;-76
2022/01/05 23:51:43;;;;;;;42.87;13.90;;;;;;;5.22;100.00;99285.06;31209912;28;20048;-75
